Smithville, Missouri
Current Conditions -  °F | °C
As of 12:53 AM on Monday 22 Dec 2014 (Local Time) from KMCI Reporting Station
Overcast Overcast  
Wind Chill: 35°   Ceiling: 1900
Heat Index: 42°   Visibility: 9mi
Dew Point: 38°   Wind: 15mph
Humidity: 85%   Direction: 150°SSE
Pressure: 29.7"   Gusts: NA
Location:  39.39°N, 94.58°W
Report Text: KMCI 220653Z 15013KT 9SM OVC019 06/03 A2970 RMK AO2 DZE0555 SLP060 P0000 T00560033
Loading
Personal Weather Stations






























Interactive Weather Map New forecast layout! Learn more

10-Day Weather Forecast

Advertisements
Track Severe Weather on mobile